Etusivu
METAR-TAF:

METAR-TAF

Lentoasemat :

Kuressaaren lentoasema

Kuressaari, Viro

Leveyspiiri: 58-13-48N, Pituuspiiri: 022-30-34E, korkeus merenpinnasta: 4 m

Tämänhetkinen sää

Tämä raportti tehtiin 38 minuuttia sitten, kello 16.50 UTC
Tuuli 3 kn etelästä, vaihdellen kaakon ja etelän/lounaan välillä
Lämpötila 17°C
Kosteus 68%
Ilmanpaine 1027 hPa
Näkyvyys 10 km tai enemmän

METAR: EEKE 201650Z AUTO 17003KT 140V200 9999NDV NCD 17/11 Q1027

Aika: 20:28 (17:28 UTC)

Sääennuste

Tämä raportti tehtiin 3 tuntia ja 28 minuuttia sitten, kello 14.00 UTC
Ennuste voimassa 20. päivästä klo 15 UTC - 20. päivään klo 21 UTC
Tuuli 12 kn etelästä
Näkyvyys 10 km tai enemmän
ei pilviä alle 1500 m:ssä eikä cumulonimbus-pilviä
Tulossa
20. päivästä klo 16 UTC - 20. päivään klo 18 UTC
Tuuli 6 kn pohjoisen/luoteesta

TAF: EEKE 201400Z 2015/2021 17012KT CAVOK BECMG 2016/2018 34006KT

Säähavainnot ja -ennusteet yli 4000 lentoasemalta (METAR- ja TAF-raportit).

Käytössä olevat sääasemat on merkitty karttaan keltaisilla ja punaisilla pisteillä.

Aseta hiiri pisteen päälle nähdäksesi sääaseman nimen.

Klikkaa sitten nähdäksesi säähavainnot ja -ennusteet.

Kartan vaihtaminen: klikkaa mustalla rastilla varustettuja vihreitä pisteitä, niin voit zoomata sisään; viivalla varustettua vihreää pistettä, niin voit zoomata ulos tai vihreitä nuolia, niin pääset viereisille kartoille.


METAR-TAF: